Timeline UpdatesTrip UpdatesNews PostsPvt PostsTravel TipsAdmin PostsConv PostsFollowed PostsChat RequestsBlog PostsPNR Posts

Disclaimer
Search
 
 
Thu Apr 24, 2014 06:13:59 ISTHomeTrainsΣChainsAtlasPNRForumGalleryNewsFAQTripsMembersLoginFeedback
No Recent News for this Train
Other Trains in the News **new
Latest...
.
Tue Nov 12, 2013 (02:00PM)
⇐ Return Journey: Train# 14673

14674/Shaheed Express

Jan 22 2014 (6:51PM)
Change Departure Station:
Change Arrival Station:
Post a Train Travel TipPost a Train Travel Tip **new
Post a Comment/Question/Picture/VideoPost a Comment/Question/Picture/Video
Pantry/Catering
✕ NO Pantry Car
✓ Catering Avbl
Loco/Rake Reversals
SPJ/Samastipur Junction (9);
RSA - Rake Sharing
has an RSA with 14649/50 saryuyamuna express... ; Author: prashantsoni43
Rake/Coach Composition
LOCO-SLR-GEN-GEN-GEN-GEN-GEN-GEN-AB1-B1-S1-S2-S3-S4-S5-S6-S7-GEN-GEN-SLR
Loco
ASR-DLI: GZB WAP-4/1 WAP-7 DLI-JYG: TKD/LKO WDM-3A / TKD WDP-4
News    PNR    Forum    Time-Table    Availability    Fare Chart    Map    Arr/Dep History    Trips    Gallery    ΣChains    X/O    Timeline    
Travel Time: 8h 18m    18 halts    Distance: 445 km    Avg Speed: 53 km/hr
Type: Mail/Express
Zone: NR/Northern
Departs @ 11:55 (Avg 7m late)
Platform# 1
S T TF 
Amritsar Junction/ASR 
Arrives @ 20:13 (Avg 17m late)
Platform# ???
S T TF 
Delhi Sabzi Mandi/SZM 

18 halts. 70 intermediate Stations between Amritsar Junction and Delhi Sabzi Mandi

Show ALL intermediate Stations  Show Old Time-Table

#CodeStation NameX/OArrivesAvgDepartsAvgHaltPFDay#KmSpeedElevZoneAddress
1ASR»Amritsar Junction (5)»  -11:55+7110.092233mNRAmritsar 143002, Punjab
2BEASBeas Junction (2)  12:23+1812:25+192m2143.061238mNRBeas, Punjab
3KREKartarpur (2)  12:46+1512:48+132m1164.552236mNRKartarpur, Punjab
4JUCJalandhar City Junction (5)X  13:05+913:10+135m2179.126239mNRJalandhar 144001, Punjab
5JRCJalandhar Cantt. Junction (3)  13:21+1313:23+132m2184.065239mNRNear Rama Mandi, Punjab
6PGWPhagwara Junction (3)  13:38+1413:40+142m11100.375245mNRPhagwara, Punjab
7PHRPhillaur Junction (3)X  13:58+1414:00+142m11122.852246mNRPhillaur, Punjab
8LDHLudhiana Junction (7)X  14:15+1514:25+1410m11135.939246mNRLudhiana 141001, Punjab
9DOADoraha (2)  15:00+1415:02+152m21158.481261mNRDoraha, Punjab
10KNNKhanna (3)  15:17+1615:19+162m21178.861269mNRNH 1, Punjab
11GVGMandi Gobindgarh (2)  15:27+1715:29+172m11186.953268mNRMandi Gobindgarh, Punjab
12SIRSirhind Junction (3)X  15:40+1815:42+182m21196.788271mNRSirhind, Punjab
13RPJRajpura Junction (3)X  15:59+2216:01+232m21221.559272mNRNH-1, Punjab
14UBCAmbala City (3)XO  16:22+2216:24+232m11242.013273mNRNH-1, Haryana
15UMBAmbala Cantt. Junction (7)X  17:00+417:10+410m21249.668278mNRAmbala 133001, Haryana
16KKDEKurukshetra Junction (3)X  17:47+1417:49+142m31291.674260mNRKurukshetra, Haryana
17KUNKarnal (3)X  18:16+1418:18+142m--1324.767253mNRKarnal, Haryana
18PNPPanipat Junction (5)  18:49+1018:51+102m21359.180235mNRPanipat, Haryana
19SNPSonipat (3)X  19:25+1819:27+182m11404.353225mNRSonipat, Haryana
20SZM•Delhi Sabzi Mandi (2)•  20:13+1720:15+192m--1444.76220mNRGulabi Bagh, Delhi NCT
21DLIOld Delhi Junction (16)X20:45+1121:15+1330m121447.624219mNRNear Chandni Chowk Metro Station, Delhi NCT
22GZBGhaziabad Junction (6)  22:05+1022:07+112m11467.758217mNRGhaziabad, Uttar Pradesh
23HPUHapur Junction (4)  22:45+2722:48+263m--1504.473214mNRHapur Jn., Uttar Pradesh
24AMROAmroha (3)X  23:48+2923:50+292m11577.941217mNRAmroha, Uttar Pradesh
25MBMoradabad Junction (7)X  00:35+2000:45+2510m32608.455201mNRMoradabad, Uttar Pradesh
26RMURampur Junction (3)X  01:15+3001:17+312m--2635.765190mNRRampur, Uttar Pradesh
27BEBareilly Junction (4)X  02:15+3202:20+325m--2698.765174mNRBareilly, Uttar Pradesh
28SPNShahjahanpur Junction (3)X  03:25+3303:30+325m--2769.262156mNRShahjahanpur, Uttar Pradesh
29LKOLucknow Charbagh (9)X  06:10+2806:40+2030m32934.140123mNRCharbagh, Uttar Pradesh
30BBKBarabanki Junction (4)X  07:23+1607:25+182m--2962.667122mNRPin-225001, Uttar Pradesh
31GDGonda Junction (3)X  08:45+3908:55+3610m221051.973110mNERGonda 271001, Uttar Pradesh
32MURMankapur Junction (5)  09:18+3909:20+392m--21079.874104mNERDistrict Gonda, Uttar Pradesh
33BVBabhnan (2)X  09:44+4009:46+402m--21109.664101mNERDistrict- Basti, Uttar Pradesh
34BSTBasti (4)  10:15+3610:20+375m--21140.47790mNERBasti 272001, Uttar Pradesh
35KLDKhalilabad (3)X  10:43+3910:45+392m221169.92986mNERKhalilabad- 272175, Uttar Pradesh
36GKPGorakhpur Junction (10)X  11:55+1712:15+1520m521203.86984mNERGorakhpur 273001, Uttar Pradesh
37DEOSDeoria Sadar (3)  12:58+5113:00+572m--21253.05079mNERDeoria- 274001, Uttar Pradesh
38BTTBhatni Junction (5)X  13:25+5813:30+1:005m--21273.77073mNERDeoria, Uttar Pradesh
39BHTRBhatpar Rani (2)X  13:41+1:0513:43+1:052m--21286.63573mNERDeoria, Uttar Pradesh
40MWMairwa (2)  14:08+5714:10+582m--21301.23273mNERMairwa, Bihar
41SVSiwan Junction (4)X  14:50+4414:55+445m--21322.43570mNERSiwan, Bihar
42CPRChhapra Junction (6)X  16:40+1517:00+1320m--21383.76058mNERDistt: Saran, Bihar
43SEESonpur Junction (4)  17:54+5517:59+1:255m--21437.72556mECRSaran, Bihar
44HJPHajipur Junction (3)X  18:12+1:2418:14+1:452m221443.24555mECR06224-272230, Bihar
45MFPMuzaffarpur Junction (6)X  19:25+2:1319:35+2:1510m321497.03557mECRMuzaffarpur, Bihar
46SPJSamastipur Junction (9)OO21:05+1:5621:35+1:5930m--21549.25755mECRSamastipur, Bihar
47HYTHaiaghatXO  21:58+2:0822:00+2:082m--21571.22551mECRDarbhanga, Bihar
48LSILaheria Sarai (1)  22:25+2:0022:30+2:015m121581.63052mECRDarbhanga, Bihar
49DBGDarbhanga Junction (5)X  22:40+2:0122:50+2:0210m121586.62754mECRDarbhanga, Bihar
50KKHTKakarghatti  23:04+1:5923:06+1:592m--21592.94454mECRDarbhanga, Bihar
51TRSTarsarai  23:15+1:5923:17+1:592m--21599.53154mECRDarbhanga, Bihar
52SKISakri Junction (5)  23:30+1:5623:35+1:565m--21606.23955mECRMadhubani, Bihar
53PDWPandaul  23:47+1:5623:49+1:572m--21614.02059mECRMadhubani, Bihar
54MBIMadhubani  00:16+1:4600:18+1:482m--31623.04662mECRMadhubani, Bihar
55RJARajanagar  00:31+1:4700:33+1:472m--31633.03765mECRRajnagar Distt: Madhubani, Bihar
56KJIKhajauli  00:48+1:4400:50+1:452m--31642.21870mECRMadhubani, Bihar
57JYGJaynagar (3)  01:30+1:25-131654.3-68mECRDistt: Madhubani, Bihar
Scroll to Top
Scroll to Bottom